createdAt,value
2023-03-14T00:00:01.931Z,11.9
2023-03-14T00:02:32.535Z,12
2023-03-14T00:05:03.018Z,12
2023-03-14T00:07:34.433Z,12
2023-03-14T00:10:05.223Z,12
2023-03-14T00:12:35.755Z,12
2023-03-14T00:15:06.509Z,12
2023-03-14T00:17:36.925Z,12
2023-03-14T00:20:08.248Z,12
2023-03-14T00:22:39.301Z,12
2023-03-14T00:25:10.338Z,12
2023-03-14T00:27:41.400Z,12.1
2023-03-14T00:30:12.732Z,12.1
2023-03-14T00:32:43.586Z,12.2
2023-03-14T00:35:14.174Z,12.1
2023-03-14T00:37:45.001Z,12.1
2023-03-14T00:40:15.762Z,12.1
2023-03-14T00:42:46.497Z,12.1
2023-03-14T00:45:17.729Z,12.1
2023-03-14T00:47:49.164Z,12.1
2023-03-14T00:50:19.538Z,12.1
2023-03-14T00:52:50.347Z,12.1
2023-03-14T00:55:21.185Z,12
2023-03-14T00:57:51.884Z,12
2023-03-14T01:00:22.455Z,12
2023-03-14T01:02:53.407Z,12
2023-03-14T01:05:23.932Z,12
2023-03-14T01:07:54.452Z,12
2023-03-14T01:10:25.391Z,11.9
2023-03-14T01:12:56.341Z,11.9
2023-03-14T01:15:26.922Z,11.9
2023-03-14T01:17:57.913Z,12
2023-03-14T01:20:28.631Z,11.9
2023-03-14T01:23:00.256Z,12
2023-03-14T01:25:30.936Z,11.9
2023-03-14T01:28:01.560Z,12
2023-03-14T01:30:32.149Z,12
2023-03-14T01:33:03.145Z,12
2023-03-14T01:35:33.970Z,12
2023-03-14T01:38:04.753Z,11.9
2023-03-14T01:40:35.345Z,12
2023-03-14T01:43:05.788Z,11.9
2023-03-14T01:45:37.256Z,11.9
2023-03-14T01:48:08.616Z,11.9
2023-03-14T01:50:39.290Z,11.9
2023-03-14T01:53:10.115Z,11.9
2023-03-14T01:55:42.075Z,12
2023-03-14T01:58:12.987Z,12
2023-03-14T02:00:43.627Z,12
2023-03-14T02:03:14.040Z,12
2023-03-14T02:05:44.438Z,12
2023-03-14T02:08:15.386Z,12
2023-03-14T02:10:46.209Z,12
2023-03-14T02:13:16.592Z,11.9
2023-03-14T02:15:47.466Z,11.9
2023-03-14T02:18:16.692Z,11.9
2023-03-14T02:20:47.320Z,11.9
2023-03-14T02:23:18.288Z,11.8
2023-03-14T02:25:49.276Z,11.9
2023-03-14T02:28:18.476Z,11.8
2023-03-14T02:30:49.101Z,11.8
2023-03-14T02:33:20.258Z,11.8
2023-03-14T02:35:50.795Z,11.9
2023-03-14T02:38:21.234Z,11.8
2023-03-14T02:40:52.295Z,11.7
2023-03-14T02:43:23.247Z,11.7
2023-03-14T02:45:54.369Z,11.7
2023-03-14T02:48:25.025Z,11.7
2023-03-14T02:50:56.305Z,11.7
2023-03-14T02:53:26.550Z,11.6
2023-03-14T02:55:57.646Z,11.7
2023-03-14T02:58:28.814Z,11.7
2023-03-14T03:00:59.749Z,11.7
2023-03-14T03:03:30.433Z,11.8
2023-03-14T03:06:01.111Z,11.6
2023-03-14T03:08:32.085Z,11.6
2023-03-14T03:11:01.333Z,11.7
2023-03-14T03:13:32.024Z,11.6
2023-03-14T03:16:03.006Z,11.6
2023-03-14T03:18:33.942Z,11.6
2023-03-14T03:21:04.829Z,11.6
2023-03-14T03:23:35.471Z,11.7
2023-03-14T03:26:06.342Z,11.7
2023-03-14T03:28:35.353Z,11.6
2023-03-14T03:31:05.992Z,11.6
2023-03-14T03:33:35.837Z,11.5
2023-03-14T03:36:06.667Z,11.4
2023-03-14T03:38:37.970Z,11.5
2023-03-14T03:41:08.690Z,11.6
2023-03-14T03:43:44.400Z,11.6
2023-03-14T03:46:15.334Z,11.7
2023-03-14T03:51:18.670Z,11.8
2023-03-14T03:53:49.767Z,11.7
2023-03-14T03:56:20.457Z,11.7
2023-03-14T03:58:52.284Z,11.7
2023-03-14T04:01:22.947Z,11.7
2023-03-14T04:03:56.935Z,11.7
2023-03-14T04:06:28.005Z,11.7
2023-03-14T04:08:58.856Z,11.6
2023-03-14T04:11:29.966Z,11.6
2023-03-14T04:14:00.825Z,11.5
2023-03-14T04:16:31.666Z,11.6
2023-03-14T04:19:02.183Z,11.4
2023-03-14T04:21:32.745Z,11.5
2023-03-14T04:24:03.936Z,11.4
2023-03-14T04:26:34.891Z,11.4
2023-03-14T04:29:05.945Z,11.5
2023-03-14T04:31:35.410Z,11.4
2023-03-14T04:34:05.887Z,11.3
2023-03-14T04:36:39.187Z,11.2
2023-03-14T04:39:07.499Z,11.2
2023-03-14T04:41:38.686Z,11.1
2023-03-14T04:44:09.564Z,11.1
2023-03-14T04:46:40.555Z,11.1
2023-03-14T04:49:11.395Z,11.1
2023-03-14T04:51:43.360Z,11.1
2023-03-14T04:54:15.121Z,11.2
2023-03-14T04:56:46.353Z,11.1
2023-03-14T04:59:17.133Z,11.3
2023-03-14T05:01:47.787Z,11.1
2023-03-14T05:04:18.521Z,11.2
2023-03-14T05:06:49.711Z,11.2
2023-03-14T05:09:20.620Z,11.3
2023-03-14T05:11:51.356Z,11.3
2023-03-14T05:14:22.038Z,11.3
2023-03-14T05:16:52.501Z,11.3
2023-03-14T05:19:23.346Z,11.4
2023-03-14T05:21:54.443Z,11.4
2023-03-14T05:24:22.962Z,11.3
2023-03-14T05:26:54.650Z,11.4
2023-03-14T05:29:25.307Z,11.5
2023-03-14T05:31:55.906Z,11.4
2023-03-14T05:34:27.228Z,11.5
2023-03-14T05:36:58.096Z,11.6
2023-03-14T05:39:29.102Z,11.5
2023-03-14T05:42:00.072Z,11.5
2023-03-14T05:44:30.864Z,11.5
2023-03-14T05:47:01.582Z,11.5
2023-03-14T05:49:32.598Z,11.5
2023-03-14T05:52:03.115Z,11.5
2023-03-14T05:54:33.764Z,11.6
2023-03-14T05:57:04.188Z,11.5
2023-03-14T05:59:35.082Z,11.6
2023-03-14T06:02:06.054Z,11.6
2023-03-14T06:04:36.468Z,11.6
2023-03-14T06:07:07.063Z,11.7
2023-03-14T06:09:37.898Z,11.8
2023-03-14T06:12:08.742Z,11.9
2023-03-14T06:14:39.530Z,11.9
2023-03-14T06:17:10.440Z,11.9
2023-03-14T06:19:41.193Z,12
2023-03-14T06:22:11.973Z,12
2023-03-14T06:24:42.622Z,12.1
2023-03-14T06:27:13.116Z,12.1
2023-03-14T06:29:42.378Z,12.3
2023-03-14T06:32:11.824Z,12.2
2023-03-14T06:34:42.282Z,12.3
2023-03-14T06:37:12.882Z,12.4
2023-03-14T06:39:43.704Z,12.5
2023-03-14T06:42:14.756Z,12.5
2023-03-14T06:44:45.264Z,12.5
2023-03-14T06:47:15.842Z,12.6
2023-03-14T06:49:46.296Z,12.6
2023-03-14T06:52:16.699Z,12.7
2023-03-14T06:54:48.282Z,12.8
2023-03-14T06:57:18.908Z,12.9
2023-03-14T06:59:52.911Z,12.9
2023-03-14T07:02:32.584Z,13
2023-03-14T07:04:53.986Z,13
2023-03-14T07:07:24.337Z,13.1
2023-03-14T07:09:55.037Z,13.1
2023-03-14T07:12:25.249Z,13.2
2023-03-14T07:14:57.613Z,13.3
2023-03-14T07:17:26.793Z,13.4
2023-03-14T07:19:57.344Z,13.6
2023-03-14T07:22:28.172Z,13.5
2023-03-14T07:24:58.712Z,13.6
2023-03-14T07:27:29.708Z,13.7
2023-03-14T07:30:00.393Z,13.7
2023-03-14T07:32:30.793Z,13.8
2023-03-14T07:35:01.691Z,13.9
2023-03-14T07:37:32.504Z,14
2023-03-14T07:40:03.103Z,14
2023-03-14T07:42:33.508Z,14
2023-03-14T07:45:04.068Z,13.9
2023-03-14T07:47:34.755Z,14.1
2023-03-14T07:50:05.759Z,14.2
2023-03-14T07:52:35.980Z,14.3
2023-03-14T07:55:06.567Z,14.3
2023-03-14T07:57:37.279Z,14.4
2023-03-14T08:00:07.734Z,14.3
2023-03-14T08:02:38.684Z,14.4
2023-03-14T08:05:09.167Z,14.5
2023-03-14T08:07:39.276Z,14.6
2023-03-14T08:10:10.505Z,14.4
2023-03-14T08:12:41.413Z,14.4
2023-03-14T08:15:11.599Z,14.6
2023-03-14T08:17:42.687Z,14.5
2023-03-14T08:20:14.343Z,14.6
2023-03-14T08:22:44.704Z,14.6
2023-03-14T08:25:14.919Z,14.6
2023-03-14T08:27:47.090Z,14.7
2023-03-14T08:30:20.752Z,14.7
2023-03-14T08:32:51.583Z,14.6
2023-03-14T08:35:21.455Z,14.5
2023-03-14T08:37:53.398Z,14.4
2023-03-14T08:40:24.407Z,14.4
2023-03-14T08:42:56.666Z,14.5
2023-03-14T08:45:28.553Z,14.6
2023-03-14T08:48:01.021Z,14.6
2023-03-14T08:50:35.546Z,14.6
2023-03-14T08:53:10.835Z,14.6
2023-03-14T08:55:48.012Z,14.5
2023-03-14T09:00:51.192Z,14.6
2023-03-14T09:03:26.343Z,14.6
2023-03-14T09:05:55.098Z,14.6
2023-03-14T09:08:25.730Z,14.6
2023-03-14T09:10:56.444Z,14.8
2023-03-14T09:13:27.100Z,14.8
2023-03-14T09:15:58.476Z,14.9
2023-03-14T09:18:35.548Z,14.9
2023-03-14T09:21:06.326Z,15.1
2023-03-14T09:23:37.199Z,15.1
2023-03-14T09:26:09.209Z,15.4
2023-03-14T09:28:39.987Z,15.4
2023-03-14T09:31:10.741Z,15.5
2023-03-14T09:33:42.543Z,15.6
2023-03-14T09:36:19.526Z,15.6
2023-03-14T09:38:50.598Z,15.7
2023-03-14T09:41:23.395Z,15.8
2023-03-14T09:43:57.240Z,15.8
2023-03-14T09:46:36.883Z,15.9
2023-03-14T09:49:09.254Z,16
2023-03-14T09:51:46.271Z,16.1
2023-03-14T09:54:16.574Z,16.3
2023-03-14T09:56:46.970Z,16.4
2023-03-14T09:59:16.300Z,16.5
2023-03-14T10:01:52.791Z,16.5
2023-03-14T10:04:25.339Z,16.6
2023-03-14T10:07:01.651Z,16.9
2023-03-14T10:09:34.037Z,16.9
2023-03-14T10:12:09.173Z,16.9
2023-03-14T10:14:38.839Z,17
2023-03-14T10:17:09.422Z,17.2
2023-03-14T10:19:41.047Z,17.2
2023-03-14T10:22:21.267Z,17.4
2023-03-14T10:24:54.522Z,17.5
2023-03-14T10:27:27.685Z,17.8
2023-03-14T10:30:01.439Z,18.1
2023-03-14T10:32:32.118Z,18.3
2023-03-14T10:35:02.650Z,18.5
2023-03-14T10:37:41.503Z,18.7
2023-03-14T10:40:17.823Z,18.8
2023-03-14T10:45:30.862Z,19.1
2023-03-14T10:48:13.560Z,19.2
2023-03-14T10:50:46.240Z,19.3
2023-03-14T10:53:27.434Z,19.4
2023-03-14T10:55:59.544Z,19.4
2023-03-14T10:58:33.012Z,19.4
2023-03-14T11:01:06.496Z,19.4
2023-03-14T11:03:44.592Z,19.4
2023-03-14T11:06:23.716Z,19.4
2023-03-14T11:08:57.416Z,19.4
2023-03-14T11:11:30.658Z,19.6
2023-03-14T11:14:10.472Z,19.7
2023-03-14T11:16:42.968Z,19.7
2023-03-14T11:19:17.803Z,19.7
2023-03-14T11:21:49.101Z,19.7
2023-03-14T11:24:26.151Z,19.8
2023-03-14T11:26:58.197Z,19.9
2023-03-14T11:29:28.515Z,19.8
2023-03-14T11:32:04.996Z,19.7
2023-03-14T11:34:39.460Z,19.7
2023-03-14T11:37:10.144Z,19.5
2023-03-14T11:39:43.505Z,19.6
2023-03-14T11:42:13.860Z,19.3
2023-03-14T11:44:44.638Z,19.2
2023-03-14T11:47:16.102Z,19.2
2023-03-14T11:49:46.368Z,19.2
2023-03-14T11:52:20.380Z,19.3
2023-03-14T11:54:51.241Z,19.4
2023-03-14T11:57:23.500Z,19.4
2023-03-14T11:59:57.719Z,19.5
2023-03-14T12:02:29.151Z,19.6
2023-03-14T12:04:59.564Z,19.7
2023-03-14T12:07:29.796Z,19.8
2023-03-14T12:10:00.635Z,19.6
2023-03-14T12:12:31.709Z,19.6
2023-03-14T12:15:01.945Z,19.5
2023-03-14T12:17:33.760Z,19.6
2023-03-14T12:20:06.346Z,19.6
2023-03-14T12:22:36.677Z,19.7
2023-03-14T12:30:20.441Z,19.7
2023-03-14T12:32:57.979Z,19.8
2023-03-14T12:35:28.769Z,20
2023-03-14T12:38:01.616Z,20.1
2023-03-14T12:40:33.282Z,20.3
2023-03-14T12:43:04.580Z,20.3
2023-03-14T12:45:35.732Z,20.3
2023-03-14T12:48:07.255Z,20.6
2023-03-14T12:50:45.157Z,20.6
2023-03-14T12:53:15.865Z,20.5
2023-03-14T12:55:47.778Z,20.5
2023-03-14T12:58:18.233Z,20.4
2023-03-14T13:00:48.853Z,20.4
2023-03-14T13:03:25.625Z,20.5
2023-03-14T13:06:03.567Z,20.4
2023-03-14T13:08:34.914Z,20.4
2023-03-14T13:11:07.316Z,20.5
2023-03-14T13:13:40.679Z,20.5
2023-03-14T13:16:11.472Z,20.3
2023-03-14T13:18:42.290Z,20.4
2023-03-14T13:21:12.038Z,20.3
2023-03-14T13:23:42.761Z,20.3
2023-03-14T13:26:15.475Z,20.4
2023-03-14T13:28:44.526Z,20.5
2023-03-14T13:31:15.374Z,20.5
2023-03-14T13:33:46.468Z,20.6
2023-03-14T13:36:20.057Z,20.5
2023-03-14T13:38:51.586Z,20.4
2023-03-14T13:41:23.522Z,20.4
2023-03-14T13:43:53.905Z,20.5
2023-03-14T13:46:22.877Z,20.4
2023-03-14T13:48:53.468Z,20.3
2023-03-14T13:51:22.938Z,20.5
2023-03-14T13:53:52.972Z,20.3
2023-03-14T13:56:24.837Z,20.4
2023-03-14T13:58:56.946Z,20.4
2023-03-14T14:01:33.713Z,20.4
2023-03-14T14:04:05.273Z,20.2
2023-03-14T14:06:39.329Z,20.3
2023-03-14T14:09:11.999Z,20.3
2023-03-14T14:11:49.011Z,20.4
2023-03-14T14:14:14.837Z,20.2
2023-03-14T14:16:45.506Z,20.3
2023-03-14T14:19:18.733Z,20.3
2023-03-14T14:21:49.231Z,20.4
2023-03-14T14:24:19.722Z,20.4
2023-03-14T14:26:50.453Z,20.4
2023-03-14T14:29:22.879Z,20.3
2023-03-14T14:31:52.578Z,20.4
2023-03-14T14:34:23.028Z,20.3
2023-03-14T14:36:53.244Z,20
2023-03-14T14:39:26.600Z,20.1
2023-03-14T14:41:58.581Z,20.1
2023-03-14T14:44:33.870Z,20
2023-03-14T14:47:04.270Z,20
2023-03-14T14:49:33.104Z,20
2023-03-14T14:52:03.786Z,20.1
2023-03-14T14:54:39.632Z,20.1
2023-03-14T14:57:11.175Z,20.1
2023-03-14T14:59:42.726Z,20.1
2023-03-14T15:04:50.866Z,20.1
2023-03-14T15:07:28.189Z,20.2
2023-03-14T15:09:59.944Z,20.3
2023-03-14T15:12:33.394Z,20.2
2023-03-14T15:15:10.149Z,20.3
2023-03-14T15:17:40.906Z,20.3
2023-03-14T15:20:19.713Z,20.3
2023-03-14T15:22:55.566Z,20.2
2023-03-14T15:25:43.836Z,20.2
2023-03-14T15:27:56.153Z,20.1
2023-03-14T15:30:26.540Z,20.1
2023-03-14T15:32:58.720Z,20
2023-03-14T15:35:27.738Z,20
2023-03-14T15:38:05.356Z,19.9
2023-03-14T15:40:38.078Z,19.9
2023-03-14T15:43:22.543Z,19.8
2023-03-14T15:45:52.303Z,19.9
2023-03-14T15:48:29.630Z,19.6
2023-03-14T15:50:58.584Z,19.5
2023-03-14T15:53:38.114Z,19.4
2023-03-14T15:56:17.741Z,19.3
2023-03-14T15:58:49.880Z,19.2
2023-03-14T16:01:25.338Z,19.1
2023-03-14T16:03:59.235Z,19.2
2023-03-14T16:06:29.435Z,19.1
2023-03-14T16:08:59.724Z,19.1
2023-03-14T16:11:30.079Z,19.1
2023-03-14T16:14:02.090Z,19.1
2023-03-14T16:16:33.196Z,19
2023-03-14T16:19:07.221Z,18.9
2023-03-14T16:21:37.426Z,18.8
2023-03-14T16:24:08.586Z,18.7
2023-03-14T16:26:38.855Z,18.8
2023-03-14T16:29:09.687Z,18.8
2023-03-14T16:31:39.948Z,18.8
2023-03-14T16:34:14.212Z,18.7
2023-03-14T16:36:47.920Z,18.7
2023-03-14T16:39:21.922Z,18.6
2023-03-14T16:41:53.501Z,18.6
2023-03-14T16:44:22.475Z,18.6
2023-03-14T16:46:56.532Z,18.6
2023-03-14T16:49:27.086Z,18.6
2023-03-14T16:54:27.293Z,18.4
2023-03-14T16:56:57.760Z,18.3
2023-03-14T16:59:28.395Z,18.2
2023-03-14T17:02:01.181Z,18.1
2023-03-14T17:04:31.882Z,18
2023-03-14T17:09:43.748Z,18
2023-03-14T17:15:03.854Z,18
2023-03-14T17:17:35.646Z,17.9
2023-03-14T17:20:09.341Z,17.7
2023-03-14T17:22:39.817Z,17.7
2023-03-14T17:25:14.262Z,17.6
2023-03-14T17:27:46.281Z,17.6
2023-03-14T17:30:15.718Z,17.4
2023-03-14T17:32:46.235Z,17.3
2023-03-14T17:35:25.688Z,17.2
2023-03-14T17:37:55.382Z,17.2
2023-03-14T17:40:29.463Z,17
2023-03-14T17:42:59.172Z,16.8
2023-03-14T17:45:38.302Z,16.6
2023-03-14T17:48:10.601Z,16.7
2023-03-14T17:50:41.453Z,16.5
2023-03-14T17:53:20.552Z,16.4
2023-03-14T17:55:51.081Z,16.3
2023-03-14T17:58:25.700Z,16.2
2023-03-14T18:00:56.442Z,16.1
2023-03-14T18:03:28.750Z,16
2023-03-14T18:06:01.892Z,16
2023-03-14T18:08:32.313Z,15.9
2023-03-14T18:11:04.449Z,15.8
2023-03-14T18:13:38.532Z,15.5
2023-03-14T18:16:10.889Z,15.5
2023-03-14T18:18:40.862Z,15.5
2023-03-14T18:21:20.709Z,15.5
2023-03-14T18:24:01.134Z,15.4
2023-03-14T18:26:36.625Z,15.4
2023-03-14T18:31:52.698Z,15.4
2023-03-14T18:34:24.298Z,15.3
2023-03-14T18:36:54.766Z,15.4
2023-03-14T18:39:26.050Z,15.3
2023-03-14T18:42:01.086Z,15.2
2023-03-14T18:44:29.636Z,15.1
2023-03-14T18:47:04.374Z,15.2
2023-03-14T18:52:05.891Z,15.1
2023-03-14T18:54:34.817Z,15
2023-03-14T18:57:09.047Z,15
2023-03-14T18:59:39.410Z,15
2023-03-14T19:02:16.173Z,15.1
2023-03-14T19:04:47.004Z,15.1
2023-03-14T19:07:17.560Z,15.1
2023-03-14T19:09:49.058Z,15.2
2023-03-14T19:12:25.466Z,15.3
2023-03-14T19:14:57.330Z,15.2
2023-03-14T19:17:30.254Z,15.2
2023-03-14T19:20:00.591Z,15.3
2023-03-14T19:22:29.512Z,15.2
2023-03-14T19:25:05.119Z,15.2
2023-03-14T19:27:36.087Z,15.2
2023-03-14T19:30:06.615Z,15.2
2023-03-14T19:32:36.122Z,15.1
2023-03-14T19:35:07.255Z,15.1
2023-03-14T19:37:36.526Z,15
2023-03-14T19:40:06.679Z,15.1
2023-03-14T19:42:39.564Z,15.1
2023-03-14T19:45:10.195Z,14.9
2023-03-14T19:47:40.592Z,14.9
2023-03-14T19:50:10.467Z,14.8
2023-03-14T19:52:40.917Z,14.9
2023-03-14T19:55:10.221Z,14.9
2023-03-14T19:57:40.289Z,14.9
2023-03-14T20:00:10.911Z,14.9
2023-03-14T20:02:43.472Z,14.9
2023-03-14T20:05:12.651Z,14.9
2023-03-14T20:07:44.521Z,15
2023-03-14T20:10:18.529Z,14.9
2023-03-14T20:12:55.310Z,14.9
2023-03-14T20:15:26.606Z,14.9
2023-03-14T20:17:57.205Z,15
2023-03-14T20:20:27.888Z,15.1
2023-03-14T20:22:59.600Z,15
2023-03-14T20:25:28.467Z,15.1
2023-03-14T20:27:59.790Z,14.9
2023-03-14T20:30:31.558Z,14.9
2023-03-14T20:33:05.987Z,14.9
2023-03-14T20:35:36.011Z,14.9
2023-03-14T20:38:08.587Z,14.9
2023-03-14T20:40:44.105Z,14.9
2023-03-14T20:43:15.520Z,14.8
2023-03-14T20:45:48.078Z,14.8
2023-03-14T20:48:23.339Z,14.8
2023-03-14T20:50:55.205Z,14.8
2023-03-14T20:53:24.768Z,14.6
2023-03-14T20:55:53.517Z,14.6
2023-03-14T20:58:23.442Z,14.5
2023-03-14T21:00:54.088Z,14.6
2023-03-14T21:03:24.086Z,14.4
2023-03-14T21:05:54.173Z,14.3
2023-03-14T21:08:25.545Z,14.4
2023-03-14T21:10:56.701Z,14.5
2023-03-14T21:13:27.323Z,14.3
2023-03-14T21:15:57.758Z,14.4
2023-03-14T21:18:29.084Z,14.4
2023-03-14T21:21:00.333Z,14.4
2023-03-14T21:23:39.057Z,14.4
2023-03-14T21:26:07.494Z,14.4
2023-03-14T21:31:14.155Z,14.4
2023-03-14T21:33:44.291Z,14.4
2023-03-14T21:36:14.749Z,14.3
2023-03-14T21:38:45.317Z,14.4
2023-03-14T21:41:13.973Z,14.4
2023-03-14T21:43:53.930Z,14.5
2023-03-14T21:46:24.150Z,14.5
2023-03-14T21:49:00.660Z,14.5
2023-03-14T21:51:32.003Z,14.5
2023-03-14T21:54:02.546Z,14.6
2023-03-14T21:56:34.146Z,14.5
2023-03-14T21:59:04.764Z,14.4
2023-03-14T22:01:36.352Z,14.5
2023-03-14T22:04:12.892Z,14.4
2023-03-14T22:06:44.012Z,14.4
2023-03-14T22:09:14.971Z,14.5
2023-03-14T22:11:45.105Z,14.5
2023-03-14T22:14:16.813Z,14.5
2023-03-14T22:16:50.128Z,14.6
2023-03-14T22:19:22.323Z,14.5
2023-03-14T22:21:53.975Z,14.6
2023-03-14T22:24:24.599Z,14.6
2023-03-14T22:26:55.116Z,14.5
2023-03-14T22:29:28.068Z,14.5
2023-03-14T22:31:59.530Z,14.5
2023-03-14T22:34:30.048Z,14.5
2023-03-14T22:37:00.471Z,14.5
2023-03-14T22:39:30.952Z,14.5
2023-03-14T22:42:06.117Z,14.5
2023-03-14T22:44:40.705Z,14.6
2023-03-14T22:47:12.613Z,14.5
2023-03-14T22:49:42.605Z,14.5
2023-03-14T22:52:18.715Z,14.6
2023-03-14T22:57:22.180Z,14.4
2023-03-14T22:59:52.279Z,14.4
2023-03-14T23:02:22.688Z,14.4
2023-03-14T23:04:54.071Z,14.3
2023-03-14T23:07:23.035Z,14.3
2023-03-14T23:09:53.774Z,14.4
2023-03-14T23:12:24.108Z,14.4
2023-03-14T23:14:54.846Z,14.5
2023-03-14T23:17:25.823Z,14.5
2023-03-14T23:19:54.587Z,14.5
2023-03-14T23:22:25.754Z,14.4
2023-03-14T23:24:55.843Z,14.4
2023-03-14T23:27:26.471Z,14.5
2023-03-14T23:29:56.812Z,14.4
2023-03-14T23:32:27.254Z,14.4
2023-03-14T23:34:57.410Z,14.5
2023-03-14T23:37:27.789Z,14.5
2023-03-14T23:39:59.296Z,14.6
2023-03-14T23:42:30.989Z,14.4
2023-03-14T23:45:02.434Z,14.4
2023-03-14T23:47:32.863Z,14.4
2023-03-14T23:50:03.942Z,14.4
2023-03-14T23:52:34.305Z,14.4
2023-03-14T23:55:04.910Z,14.4
2023-03-14T23:57:36.387Z,14.5
